sensor_id;sensor_type;location;lat;lon;timestamp;P1;durP1;ratioP1;P2;durP2;ratioP2
77051;SDS011;65980;44.898;8.602;2023-07-13T00:00:47;5.55;;;2.03;;
77051;SDS011;65980;44.898;8.602;2023-07-13T00:03:51;4.10;;;1.83;;
77051;SDS011;65980;44.898;8.602;2023-07-13T00:06:56;5.88;;;2.03;;
77051;SDS011;65980;44.898;8.602;2023-07-13T00:10:03;5.32;;;1.90;;
77051;SDS011;65980;44.898;8.602;2023-07-13T00:13:08;4.22;;;2.28;;
77051;SDS011;65980;44.898;8.602;2023-07-13T00:16:13;4.63;;;2.10;;
77051;SDS011;65980;44.898;8.602;2023-07-13T00:19:17;9.48;;;2.38;;
77051;SDS011;65980;44.898;8.602;2023-07-13T00:22:21;4.38;;;2.10;;
77051;SDS011;65980;44.898;8.602;2023-07-13T00:25:27;2.50;;;2.08;;
77051;SDS011;65980;44.898;8.602;2023-07-13T00:28:32;8.00;;;2.20;;
77051;SDS011;65980;44.898;8.602;2023-07-13T00:31:37;5.88;;;1.85;;
77051;SDS011;65980;44.898;8.602;2023-07-13T00:34:42;6.82;;;1.95;;
77051;SDS011;65980;44.898;8.602;2023-07-13T00:37:47;6.20;;;2.05;;
77051;SDS011;65980;44.898;8.602;2023-07-13T00:40:52;3.90;;;1.73;;
77051;SDS011;65980;44.898;8.602;2023-07-13T00:43:57;5.43;;;1.73;;
77051;SDS011;65980;44.898;8.602;2023-07-13T00:47:04;5.57;;;1.80;;
77051;SDS011;65980;44.898;8.602;2023-07-13T00:50:10;12.00;;;1.88;;
77051;SDS011;65980;44.898;8.602;2023-07-13T00:53:22;4.15;;;1.52;;
77051;SDS011;65980;44.898;8.602;2023-07-13T00:56:32;7.28;;;1.70;;
77051;SDS011;65980;44.898;8.602;2023-07-13T00:59:41;4.38;;;1.92;;
77051;SDS011;65980;44.898;8.602;2023-07-13T01:02:50;4.55;;;1.92;;
77051;SDS011;65980;44.898;8.602;2023-07-13T01:05:55;8.73;;;1.92;;
77051;SDS011;65980;44.898;8.602;2023-07-13T01:08:59;6.90;;;1.63;;
77051;SDS011;65980;44.898;8.602;2023-07-13T01:12:09;3.28;;;1.52;;
77051;SDS011;65980;44.898;8.602;2023-07-13T01:18:56;4.15;;;1.80;;
77051;SDS011;65980;44.898;8.602;2023-07-13T01:22:08;6.60;;;2.10;;
77051;SDS011;65980;44.898;8.602;2023-07-13T01:25:16;2.92;;;1.80;;
77051;SDS011;65980;44.898;8.602;2023-07-13T01:28:23;5.50;;;3.25;;
77051;SDS011;65980;44.898;8.602;2023-07-13T01:31:31;3.47;;;1.55;;
77051;SDS011;65980;44.898;8.602;2023-07-13T01:34:36;6.95;;;2.00;;
77051;SDS011;65980;44.898;8.602;2023-07-13T01:37:40;5.38;;;2.00;;
77051;SDS011;65980;44.898;8.602;2023-07-13T01:40:45;7.22;;;2.00;;
77051;SDS011;65980;44.898;8.602;2023-07-13T01:43:50;7.47;;;2.08;;
77051;SDS011;65980;44.898;8.602;2023-07-13T01:46:55;5.18;;;2.00;;
77051;SDS011;65980;44.898;8.602;2023-07-13T01:50:00;5.53;;;1.98;;
77051;SDS011;65980;44.898;8.602;2023-07-13T01:53:05;4.10;;;1.90;;
77051;SDS011;65980;44.898;8.602;2023-07-13T01:56:09;10.57;;;1.90;;
77051;SDS011;65980;44.898;8.602;2023-07-13T01:59:13;10.90;;;2.50;;
77051;SDS011;65980;44.898;8.602;2023-07-13T02:02:18;6.20;;;1.92;;
77051;SDS011;65980;44.898;8.602;2023-07-13T02:05:23;4.25;;;1.73;;
77051;SDS011;65980;44.898;8.602;2023-07-13T02:08:28;7.80;;;1.95;;
77051;SDS011;65980;44.898;8.602;2023-07-13T02:11:32;3.78;;;1.67;;
77051;SDS011;65980;44.898;8.602;2023-07-13T02:14:37;8.70;;;2.03;;
77051;SDS011;65980;44.898;8.602;2023-07-13T02:17:42;4.38;;;1.90;;
77051;SDS011;65980;44.898;8.602;2023-07-13T02:20:46;5.20;;;1.80;;
77051;SDS011;65980;44.898;8.602;2023-07-13T02:23:51;8.05;;;2.38;;
77051;SDS011;65980;44.898;8.602;2023-07-13T02:26:56;4.93;;;1.90;;
77051;SDS011;65980;44.898;8.602;2023-07-13T02:30:01;8.82;;;1.80;;
77051;SDS011;65980;44.898;8.602;2023-07-13T02:33:07;7.00;;;2.10;;
77051;SDS011;65980;44.898;8.602;2023-07-13T02:36:12;5.15;;;2.00;;
77051;SDS011;65980;44.898;8.602;2023-07-13T02:39:18;2.92;;;1.80;;
77051;SDS011;65980;44.898;8.602;2023-07-13T02:42:22;3.22;;;1.70;;
77051;SDS011;65980;44.898;8.602;2023-07-13T02:45:27;3.97;;;1.92;;
77051;SDS011;65980;44.898;8.602;2023-07-13T02:48:33;5.07;;;1.90;;
77051;SDS011;65980;44.898;8.602;2023-07-13T02:51:37;5.70;;;2.00;;
77051;SDS011;65980;44.898;8.602;2023-07-13T02:54:41;5.22;;;1.98;;
77051;SDS011;65980;44.898;8.602;2023-07-13T02:57:46;6.35;;;1.88;;
77051;SDS011;65980;44.898;8.602;2023-07-13T03:00:51;3.78;;;1.90;;
77051;SDS011;65980;44.898;8.602;2023-07-13T03:03:58;7.00;;;2.22;;
77051;SDS011;65980;44.898;8.602;2023-07-13T03:07:04;5.05;;;2.13;;
77051;SDS011;65980;44.898;8.602;2023-07-13T03:10:18;6.70;;;2.17;;
77051;SDS011;65980;44.898;8.602;2023-07-13T03:13:26;3.80;;;1.90;;
77051;SDS011;65980;44.898;8.602;2023-07-13T03:16:30;8.25;;;2.10;;
77051;SDS011;65980;44.898;8.602;2023-07-13T03:19:35;4.57;;;2.10;;
77051;SDS011;65980;44.898;8.602;2023-07-13T03:22:40;6.97;;;2.50;;
77051;SDS011;65980;44.898;8.602;2023-07-13T03:25:46;9.02;;;2.40;;
77051;SDS011;65980;44.898;8.602;2023-07-13T03:28:50;8.52;;;2.50;;
77051;SDS011;65980;44.898;8.602;2023-07-13T03:32:01;5.15;;;2.20;;
77051;SDS011;65980;44.898;8.602;2023-07-13T03:35:06;4.40;;;2.60;;
77051;SDS011;65980;44.898;8.602;2023-07-13T03:38:10;6.38;;;2.60;;
77051;SDS011;65980;44.898;8.602;2023-07-13T03:41:15;6.38;;;2.22;;
77051;SDS011;65980;44.898;8.602;2023-07-13T03:44:20;7.32;;;2.47;;
77051;SDS011;65980;44.898;8.602;2023-07-13T03:47:29;4.18;;;2.33;;
77051;SDS011;65980;44.898;8.602;2023-07-13T03:50:33;7.82;;;2.35;;
77051;SDS011;65980;44.898;8.602;2023-07-13T03:53:39;4.60;;;2.10;;
77051;SDS011;65980;44.898;8.602;2023-07-13T03:56:45;5.57;;;2.45;;
77051;SDS011;65980;44.898;8.602;2023-07-13T03:59:50;3.55;;;2.10;;
77051;SDS011;65980;44.898;8.602;2023-07-13T04:02:55;5.70;;;2.30;;
77051;SDS011;65980;44.898;8.602;2023-07-13T04:06:05;3.70;;;2.22;;
77051;SDS011;65980;44.898;8.602;2023-07-13T04:09:10;5.15;;;2.55;;
77051;SDS011;65980;44.898;8.602;2023-07-13T04:12:14;5.78;;;2.38;;
77051;SDS011;65980;44.898;8.602;2023-07-13T04:15:20;5.07;;;2.40;;
77051;SDS011;65980;44.898;8.602;2023-07-13T04:18:24;7.53;;;2.40;;
77051;SDS011;65980;44.898;8.602;2023-07-13T04:21:30;4.88;;;2.40;;
77051;SDS011;65980;44.898;8.602;2023-07-13T04:24:34;13.13;;;2.53;;
77051;SDS011;65980;44.898;8.602;2023-07-13T04:27:39;8.40;;;2.75;;
77051;SDS011;65980;44.898;8.602;2023-07-13T04:30:43;6.93;;;2.60;;
77051;SDS011;65980;44.898;8.602;2023-07-13T04:33:48;6.80;;;2.45;;
77051;SDS011;65980;44.898;8.602;2023-07-13T04:36:54;5.07;;;2.53;;
77051;SDS011;65980;44.898;8.602;2023-07-13T04:39:59;4.28;;;2.40;;
77051;SDS011;65980;44.898;8.602;2023-07-13T04:43:03;4.82;;;2.65;;
77051;SDS011;65980;44.898;8.602;2023-07-13T04:46:09;5.15;;;2.60;;
77051;SDS011;65980;44.898;8.602;2023-07-13T04:49:14;10.27;;;3.25;;
77051;SDS011;65980;44.898;8.602;2023-07-13T04:52:21;9.77;;;3.35;;
77051;SDS011;65980;44.898;8.602;2023-07-13T04:55:25;6.28;;;3.00;;
77051;SDS011;65980;44.898;8.602;2023-07-13T04:58:29;6.90;;;3.08;;
77051;SDS011;65980;44.898;8.602;2023-07-13T05:01:38;14.35;;;3.90;;
77051;SDS011;65980;44.898;8.602;2023-07-13T05:04:45;12.15;;;3.75;;
77051;SDS011;65980;44.898;8.602;2023-07-13T05:07:56;8.98;;;3.95;;
77051;SDS011;65980;44.898;8.602;2023-07-13T05:11:00;7.43;;;4.30;;
77051;SDS011;65980;44.898;8.602;2023-07-13T05:14:05;15.65;;;4.20;;
77051;SDS011;65980;44.898;8.602;2023-07-13T05:17:21;11.02;;;4.45;;
77051;SDS011;65980;44.898;8.602;2023-07-13T05:20:29;12.95;;;4.30;;
77051;SDS011;65980;44.898;8.602;2023-07-13T05:23:35;13.60;;;4.80;;
77051;SDS011;65980;44.898;8.602;2023-07-13T05:26:40;11.93;;;4.75;;
77051;SDS011;65980;44.898;8.602;2023-07-13T05:29:45;11.18;;;4.95;;
77051;SDS011;65980;44.898;8.602;2023-07-13T05:32:50;19.08;;;5.13;;
77051;SDS011;65980;44.898;8.602;2023-07-13T05:36:03;8.13;;;4.60;;
77051;SDS011;65980;44.898;8.602;2023-07-13T05:39:16;9.30;;;4.78;;
77051;SDS011;65980;44.898;8.602;2023-07-13T05:42:29;13.00;;;5.40;;
77051;SDS011;65980;44.898;8.602;2023-07-13T05:45:41;5.88;;;3.88;;
77051;SDS011;65980;44.898;8.602;2023-07-13T05:48:55;9.70;;;3.92;;
77051;SDS011;65980;44.898;8.602;2023-07-13T05:52:06;8.18;;;4.20;;
77051;SDS011;65980;44.898;8.602;2023-07-13T05:55:14;7.47;;;4.38;;
77051;SDS011;65980;44.898;8.602;2023-07-13T05:58:19;9.05;;;3.70;;
77051;SDS011;65980;44.898;8.602;2023-07-13T06:01:23;10.23;;;3.63;;
77051;SDS011;65980;44.898;8.602;2023-07-13T06:04:31;11.88;;;3.80;;
77051;SDS011;65980;44.898;8.602;2023-07-13T06:07:48;9.80;;;3.50;;
77051;SDS011;65980;44.898;8.602;2023-07-13T06:11:00;10.85;;;3.90;;
77051;SDS011;65980;44.898;8.602;2023-07-13T06:14:21;9.18;;;3.45;;
77051;SDS011;65980;44.898;8.602;2023-07-13T06:17:25;7.93;;;4.18;;
77051;SDS011;65980;44.898;8.602;2023-07-13T06:20:29;8.93;;;3.40;;
77051;SDS011;65980;44.898;8.602;2023-07-13T06:23:34;8.63;;;3.60;;
77051;SDS011;65980;44.898;8.602;2023-07-13T06:26:39;9.50;;;3.35;;
77051;SDS011;65980;44.898;8.602;2023-07-13T06:29:46;6.13;;;3.53;;
77051;SDS011;65980;44.898;8.602;2023-07-13T06:32:50;12.18;;;3.75;;
77051;SDS011;65980;44.898;8.602;2023-07-13T06:35:54;10.23;;;4.13;;
77051;SDS011;65980;44.898;8.602;2023-07-13T06:38:59;8.15;;;4.13;;
77051;SDS011;65980;44.898;8.602;2023-07-13T06:42:05;6.43;;;3.90;;
77051;SDS011;65980;44.898;8.602;2023-07-13T06:45:12;7.00;;;3.90;;
77051;SDS011;65980;44.898;8.602;2023-07-13T06:48:19;11.13;;;3.80;;
77051;SDS011;65980;44.898;8.602;2023-07-13T06:51:23;9.25;;;4.30;;
77051;SDS011;65980;44.898;8.602;2023-07-13T06:54:27;8.63;;;3.88;;
77051;SDS011;65980;44.898;8.602;2023-07-13T06:57:32;9.65;;;4.20;;
77051;SDS011;65980;44.898;8.602;2023-07-13T07:00:40;7.57;;;3.58;;
77051;SDS011;65980;44.898;8.602;2023-07-13T07:03:47;5.90;;;3.67;;
77051;SDS011;65980;44.898;8.602;2023-07-13T07:06:52;12.55;;;4.53;;
77051;SDS011;65980;44.898;8.602;2023-07-13T07:09:59;5.95;;;3.67;;
77051;SDS011;65980;44.898;8.602;2023-07-13T07:13:07;9.70;;;3.67;;
77051;SDS011;65980;44.898;8.602;2023-07-13T07:16:15;8.70;;;3.70;;
77051;SDS011;65980;44.898;8.602;2023-07-13T07:19:20;13.35;;;4.72;;
77051;SDS011;65980;44.898;8.602;2023-07-13T07:22:25;8.65;;;3.47;;
77051;SDS011;65980;44.898;8.602;2023-07-13T07:25:32;10.75;;;3.78;;
77051;SDS011;65980;44.898;8.602;2023-07-13T07:29:22;9.95;;;3.70;;
77051;SDS011;65980;44.898;8.602;2023-07-13T07:32:29;7.18;;;3.35;;
77051;SDS011;65980;44.898;8.602;2023-07-13T07:35:40;15.23;;;3.83;;
77051;SDS011;65980;44.898;8.602;2023-07-13T07:38:52;9.80;;;4.20;;
77051;SDS011;65980;44.898;8.602;2023-07-13T07:41:57;10.27;;;4.00;;
77051;SDS011;65980;44.898;8.602;2023-07-13T07:45:01;8.50;;;4.25;;
77051;SDS011;65980;44.898;8.602;2023-07-13T07:48:06;8.18;;;3.60;;
77051;SDS011;65980;44.898;8.602;2023-07-13T07:51:13;8.10;;;4.10;;
77051;SDS011;65980;44.898;8.602;2023-07-13T07:54:18;8.45;;;4.20;;
77051;SDS011;65980;44.898;8.602;2023-07-13T07:57:23;9.95;;;4.40;;
77051;SDS011;65980;44.898;8.602;2023-07-13T08:00:27;10.30;;;4.35;;
77051;SDS011;65980;44.898;8.602;2023-07-13T08:03:35;9.32;;;4.82;;
77051;SDS011;65980;44.898;8.602;2023-07-13T08:06:39;9.32;;;4.72;;
77051;SDS011;65980;44.898;8.602;2023-07-13T08:09:44;8.60;;;4.60;;
77051;SDS011;65980;44.898;8.602;2023-07-13T08:12:59;10.85;;;4.57;;
77051;SDS011;65980;44.898;8.602;2023-07-13T08:16:06;15.15;;;4.30;;
77051;SDS011;65980;44.898;8.602;2023-07-13T08:19:11;8.82;;;4.20;;
77051;SDS011;65980;44.898;8.602;2023-07-13T08:22:17;10.63;;;4.45;;
77051;SDS011;65980;44.898;8.602;2023-07-13T08:25:41;11.55;;;4.70;;
77051;SDS011;65980;44.898;8.602;2023-07-13T08:28:45;8.00;;;4.35;;
77051;SDS011;65980;44.898;8.602;2023-07-13T08:31:50;7.78;;;3.80;;
77051;SDS011;65980;44.898;8.602;2023-07-13T08:34:54;9.45;;;3.60;;
77051;SDS011;65980;44.898;8.602;2023-07-13T08:37:58;8.05;;;4.10;;
77051;SDS011;65980;44.898;8.602;2023-07-13T08:41:09;11.27;;;3.80;;
77051;SDS011;65980;44.898;8.602;2023-07-13T08:44:24;6.57;;;3.10;;
77051;SDS011;65980;44.898;8.602;2023-07-13T08:47:38;7.25;;;3.28;;
77051;SDS011;65980;44.898;8.602;2023-07-13T08:51:04;9.48;;;3.42;;
77051;SDS011;65980;44.898;8.602;2023-07-13T08:54:22;9.60;;;4.20;;
77051;SDS011;65980;44.898;8.602;2023-07-13T08:57:33;8.32;;;3.78;;
77051;SDS011;65980;44.898;8.602;2023-07-13T09:00:48;7.95;;;4.50;;
77051;SDS011;65980;44.898;8.602;2023-07-13T09:07:22;10.57;;;3.83;;
77051;SDS011;65980;44.898;8.602;2023-07-13T09:10:53;8.85;;;4.40;;
77051;SDS011;65980;44.898;8.602;2023-07-13T09:14:33;9.43;;;3.95;;
77051;SDS011;65980;44.898;8.602;2023-07-13T09:18:03;8.82;;;4.20;;
77051;SDS011;65980;44.898;8.602;2023-07-13T09:21:24;7.22;;;4.15;;
77051;SDS011;65980;44.898;8.602;2023-07-13T09:24:38;13.65;;;4.28;;
77051;SDS011;65980;44.898;8.602;2023-07-13T09:28:00;11.32;;;4.50;;
77051;SDS011;65980;44.898;8.602;2023-07-13T09:31:26;10.68;;;4.75;;
77051;SDS011;65980;44.898;8.602;2023-07-13T09:34:37;10.90;;;4.57;;
77051;SDS011;65980;44.898;8.602;2023-07-13T09:37:43;9.70;;;4.43;;
77051;SDS011;65980;44.898;8.602;2023-07-13T09:44:16;8.95;;;4.00;;
77051;SDS011;65980;44.898;8.602;2023-07-13T09:47:37;12.77;;;3.80;;
77051;SDS011;65980;44.898;8.602;2023-07-13T09:50:48;12.85;;;4.00;;
77051;SDS011;65980;44.898;8.602;2023-07-13T09:53:52;9.82;;;4.05;;
77051;SDS011;65980;44.898;8.602;2023-07-13T09:57:19;15.25;;;3.90;;
77051;SDS011;65980;44.898;8.602;2023-07-13T10:00:29;8.93;;;3.70;;
77051;SDS011;65980;44.898;8.602;2023-07-13T10:03:34;10.70;;;4.10;;
77051;SDS011;65980;44.898;8.602;2023-07-13T10:06:47;9.50;;;3.60;;
77051;SDS011;65980;44.898;8.602;2023-07-13T10:10:15;7.78;;;3.30;;
77051;SDS011;65980;44.898;8.602;2023-07-13T10:16:47;12.73;;;3.33;;
77051;SDS011;65980;44.898;8.602;2023-07-13T10:20:10;10.85;;;3.78;;
77051;SDS011;65980;44.898;8.602;2023-07-13T10:23:20;9.80;;;3.63;;
77051;SDS011;65980;44.898;8.602;2023-07-13T10:26:29;7.72;;;3.30;;
77051;SDS011;65980;44.898;8.602;2023-07-13T10:29:37;11.38;;;3.70;;
77051;SDS011;65980;44.898;8.602;2023-07-13T10:33:09;12.60;;;3.72;;
77051;SDS011;65980;44.898;8.602;2023-07-13T10:36:32;11.05;;;3.50;;
77051;SDS011;65980;44.898;8.602;2023-07-13T10:39:42;12.07;;;3.63;;
77051;SDS011;65980;44.898;8.602;2023-07-13T10:42:48;12.18;;;3.70;;
77051;SDS011;65980;44.898;8.602;2023-07-13T10:46:17;9.27;;;4.07;;
77051;SDS011;65980;44.898;8.602;2023-07-13T10:49:28;11.82;;;4.22;;
77051;SDS011;65980;44.898;8.602;2023-07-13T10:52:54;11.55;;;5.03;;
77051;SDS011;65980;44.898;8.602;2023-07-13T10:59:31;12.52;;;4.43;;
77051;SDS011;65980;44.898;8.602;2023-07-13T11:02:36;12.48;;;3.92;;
77051;SDS011;65980;44.898;8.602;2023-07-13T11:05:42;11.55;;;3.60;;
77051;SDS011;65980;44.898;8.602;2023-07-13T11:12:49;10.77;;;3.60;;
77051;SDS011;65980;44.898;8.602;2023-07-13T11:15:55;12.50;;;3.63;;
77051;SDS011;65980;44.898;8.602;2023-07-13T11:22:11;11.95;;;3.70;;
77051;SDS011;65980;44.898;8.602;2023-07-13T11:25:29;10.73;;;3.60;;
77051;SDS011;65980;44.898;8.602;2023-07-13T11:28:41;7.40;;;3.50;;
77051;SDS011;65980;44.898;8.602;2023-07-13T11:31:53;15.52;;;3.88;;
77051;SDS011;65980;44.898;8.602;2023-07-13T11:35:23;11.50;;;4.22;;
77051;SDS011;65980;44.898;8.602;2023-07-13T11:41:50;13.57;;;4.25;;
77051;SDS011;65980;44.898;8.602;2023-07-13T11:44:55;15.10;;;3.58;;
77051;SDS011;65980;44.898;8.602;2023-07-13T11:48:16;13.50;;;4.15;;
77051;SDS011;65980;44.898;8.602;2023-07-13T11:55:42;12.57;;;3.63;;
77051;SDS011;65980;44.898;8.602;2023-07-13T12:06:38;14.25;;;3.55;;
77051;SDS011;65980;44.898;8.602;2023-07-13T12:09:45;9.55;;;3.60;;
77051;SDS011;65980;44.898;8.602;2023-07-13T12:13:19;9.60;;;3.75;;
77051;SDS011;65980;44.898;8.602;2023-07-13T12:16:31;10.93;;;3.83;;
77051;SDS011;65980;44.898;8.602;2023-07-13T12:20:04;17.02;;;3.50;;
77051;SDS011;65980;44.898;8.602;2023-07-13T12:23:39;17.33;;;3.75;;
77051;SDS011;65980;44.898;8.602;2023-07-13T12:27:50;13.00;;;3.72;;
77051;SDS011;65980;44.898;8.602;2023-07-13T12:30:58;18.17;;;4.05;;
77051;SDS011;65980;44.898;8.602;2023-07-13T12:34:25;15.93;;;4.03;;
77051;SDS011;65980;44.898;8.602;2023-07-13T12:37:33;13.77;;;4.13;;
77051;SDS011;65980;44.898;8.602;2023-07-13T12:40:39;17.77;;;4.30;;
77051;SDS011;65980;44.898;8.602;2023-07-13T12:43:44;19.42;;;4.88;;
77051;SDS011;65980;44.898;8.602;2023-07-13T12:46:52;15.05;;;4.20;;
77051;SDS011;65980;44.898;8.602;2023-07-13T12:49:59;10.52;;;4.30;;
77051;SDS011;65980;44.898;8.602;2023-07-13T12:53:13;20.35;;;4.50;;
77051;SDS011;65980;44.898;8.602;2023-07-13T12:56:24;14.32;;;4.50;;
77051;SDS011;65980;44.898;8.602;2023-07-13T12:59:32;20.17;;;5.07;;
77051;SDS011;65980;44.898;8.602;2023-07-13T13:02:38;21.00;;;4.72;;
77051;SDS011;65980;44.898;8.602;2023-07-13T13:05:42;11.48;;;4.28;;
77051;SDS011;65980;44.898;8.602;2023-07-13T13:08:49;15.00;;;3.85;;
77051;SDS011;65980;44.898;8.602;2023-07-13T13:11:55;8.68;;;3.58;;
77051;SDS011;65980;44.898;8.602;2023-07-13T13:15:00;16.40;;;3.55;;
77051;SDS011;65980;44.898;8.602;2023-07-13T13:18:24;12.90;;;3.50;;
77051;SDS011;65980;44.898;8.602;2023-07-13T13:21:37;11.95;;;3.92;;
77051;SDS011;65980;44.898;8.602;2023-07-13T13:25:30;14.30;;;3.60;;
77051;SDS011;65980;44.898;8.602;2023-07-13T13:29:09;9.55;;;3.65;;
77051;SDS011;65980;44.898;8.602;2023-07-13T13:32:18;12.45;;;4.00;;
77051;SDS011;65980;44.898;8.602;2023-07-13T13:35:22;18.20;;;3.88;;
77051;SDS011;65980;44.898;8.602;2023-07-13T13:38:46;9.30;;;4.03;;
77051;SDS011;65980;44.898;8.602;2023-07-13T13:41:52;12.38;;;3.90;;
77051;SDS011;65980;44.898;8.602;2023-07-13T13:45:03;9.75;;;3.80;;
77051;SDS011;65980;44.898;8.602;2023-07-13T13:48:14;9.10;;;3.75;;
77051;SDS011;65980;44.898;8.602;2023-07-13T13:51:38;8.40;;;3.75;;
77051;SDS011;65980;44.898;8.602;2023-07-13T13:55:00;8.05;;;3.83;;
77051;SDS011;65980;44.898;8.602;2023-07-13T14:01:40;10.10;;;3.65;;
77051;SDS011;65980;44.898;8.602;2023-07-13T14:08:03;13.23;;;3.92;;
77051;SDS011;65980;44.898;8.602;2023-07-13T14:11:25;9.68;;;3.63;;
77051;SDS011;65980;44.898;8.602;2023-07-13T14:14:30;12.63;;;4.28;;
77051;SDS011;65980;44.898;8.602;2023-07-13T14:17:35;13.25;;;3.80;;
77051;SDS011;65980;44.898;8.602;2023-07-13T14:20:40;7.07;;;3.53;;
77051;SDS011;65980;44.898;8.602;2023-07-13T14:23:49;10.38;;;3.75;;
77051;SDS011;65980;44.898;8.602;2023-07-13T14:26:57;9.52;;;4.07;;
77051;SDS011;65980;44.898;8.602;2023-07-13T14:33:35;17.55;;;4.05;;
77051;SDS011;65980;44.898;8.602;2023-07-13T14:36:41;12.07;;;3.92;;
77051;SDS011;65980;44.898;8.602;2023-07-13T14:39:51;14.32;;;4.00;;
77051;SDS011;65980;44.898;8.602;2023-07-13T14:42:56;10.88;;;3.72;;
77051;SDS011;65980;44.898;8.602;2023-07-13T14:46:09;16.98;;;3.85;;
77051;SDS011;65980;44.898;8.602;2023-07-13T14:51:23;12.85;;;4.05;;
77051;SDS011;65980;44.898;8.602;2023-07-13T14:54:30;12.75;;;3.97;;
77051;SDS011;65980;44.898;8.602;2023-07-13T14:57:35;14.52;;;3.90;;
77051;SDS011;65980;44.898;8.602;2023-07-13T15:00:40;16.45;;;4.13;;
77051;SDS011;65980;44.898;8.602;2023-07-13T15:03:50;27.00;;;4.28;;
77051;SDS011;65980;44.898;8.602;2023-07-13T15:06:57;11.30;;;3.60;;
77051;SDS011;65980;44.898;8.602;2023-07-13T15:10:08;14.23;;;3.83;;
77051;SDS011;65980;44.898;8.602;2023-07-13T15:13:18;17.80;;;3.63;;
77051;SDS011;65980;44.898;8.602;2023-07-13T15:16:24;12.65;;;3.90;;
77051;SDS011;65980;44.898;8.602;2023-07-13T15:19:32;19.17;;;3.60;;
77051;SDS011;65980;44.898;8.602;2023-07-13T15:22:41;12.40;;;4.05;;
77051;SDS011;65980;44.898;8.602;2023-07-13T15:25:53;12.02;;;3.88;;
77051;SDS011;65980;44.898;8.602;2023-07-13T15:28:57;12.45;;;4.15;;
77051;SDS011;65980;44.898;8.602;2023-07-13T15:32:05;15.18;;;4.43;;
77051;SDS011;65980;44.898;8.602;2023-07-13T15:35:14;17.00;;;3.65;;
77051;SDS011;65980;44.898;8.602;2023-07-13T15:38:30;19.65;;;4.20;;
77051;SDS011;65980;44.898;8.602;2023-07-13T15:41:36;10.52;;;3.50;;
77051;SDS011;65980;44.898;8.602;2023-07-13T15:44:53;10.95;;;3.55;;
77051;SDS011;65980;44.898;8.602;2023-07-13T15:48:12;15.05;;;3.72;;
77051;SDS011;65980;44.898;8.602;2023-07-13T15:51:29;10.77;;;4.75;;
77051;SDS011;65980;44.898;8.602;2023-07-13T15:54:36;11.38;;;3.78;;
77051;SDS011;65980;44.898;8.602;2023-07-13T15:57:46;15.82;;;4.18;;
77051;SDS011;65980;44.898;8.602;2023-07-13T16:00:53;13.82;;;4.20;;
77051;SDS011;65980;44.898;8.602;2023-07-13T16:03:58;14.18;;;4.22;;
77051;SDS011;65980;44.898;8.602;2023-07-13T16:07:11;16.08;;;3.80;;
77051;SDS011;65980;44.898;8.602;2023-07-13T16:10:25;9.43;;;3.63;;
77051;SDS011;65980;44.898;8.602;2023-07-13T16:13:46;13.48;;;3.70;;
77051;SDS011;65980;44.898;8.602;2023-07-13T16:17:04;13.55;;;3.72;;
77051;SDS011;65980;44.898;8.602;2023-07-13T16:20:10;13.45;;;3.97;;
77051;SDS011;65980;44.898;8.602;2023-07-13T16:23:21;17.95;;;3.65;;
77051;SDS011;65980;44.898;8.602;2023-07-13T16:26:30;14.88;;;3.78;;
77051;SDS011;65980;44.898;8.602;2023-07-13T16:29:48;14.90;;;4.32;;
77051;SDS011;65980;44.898;8.602;2023-07-13T16:32:56;14.35;;;3.80;;
77051;SDS011;65980;44.898;8.602;2023-07-13T16:36:04;12.10;;;4.07;;
77051;SDS011;65980;44.898;8.602;2023-07-13T16:39:31;14.35;;;4.30;;
77051;SDS011;65980;44.898;8.602;2023-07-13T16:42:39;9.52;;;3.33;;
77051;SDS011;65980;44.898;8.602;2023-07-13T16:45:44;11.07;;;3.72;;
77051;SDS011;65980;44.898;8.602;2023-07-13T16:48:57;10.18;;;3.42;;
77051;SDS011;65980;44.898;8.602;2023-07-13T16:52:05;13.48;;;3.58;;
77051;SDS011;65980;44.898;8.602;2023-07-13T16:55:12;18.13;;;4.05;;
77051;SDS011;65980;44.898;8.602;2023-07-13T16:58:22;11.90;;;3.55;;
77051;SDS011;65980;44.898;8.602;2023-07-13T17:01:36;9.32;;;3.40;;
77051;SDS011;65980;44.898;8.602;2023-07-13T17:04:43;11.02;;;3.88;;
77051;SDS011;65980;44.898;8.602;2023-07-13T17:07:49;8.50;;;3.25;;
77051;SDS011;65980;44.898;8.602;2023-07-13T17:10:59;10.55;;;3.25;;
77051;SDS011;65980;44.898;8.602;2023-07-13T17:14:19;14.02;;;3.50;;
77051;SDS011;65980;44.898;8.602;2023-07-13T17:17:31;8.43;;;3.08;;
77051;SDS011;65980;44.898;8.602;2023-07-13T17:20:43;7.88;;;3.40;;
77051;SDS011;65980;44.898;8.602;2023-07-13T17:23:54;14.43;;;3.55;;
77051;SDS011;65980;44.898;8.602;2023-07-13T17:26:59;8.27;;;3.33;;
77051;SDS011;65980;44.898;8.602;2023-07-13T17:30:09;8.35;;;3.35;;
77051;SDS011;65980;44.898;8.602;2023-07-13T17:33:38;8.73;;;3.65;;
77051;SDS011;65980;44.898;8.602;2023-07-13T17:40:23;7.25;;;3.30;;
77051;SDS011;65980;44.898;8.602;2023-07-13T17:43:31;8.98;;;3.30;;
77051;SDS011;65980;44.898;8.602;2023-07-13T17:46:39;9.50;;;3.60;;
77051;SDS011;65980;44.898;8.602;2023-07-13T17:50:19;12.30;;;3.90;;
77051;SDS011;65980;44.898;8.602;2023-07-13T17:53:41;9.73;;;2.97;;
77051;SDS011;65980;44.898;8.602;2023-07-13T17:56:52;12.45;;;4.07;;
77051;SDS011;65980;44.898;8.602;2023-07-13T17:59:57;9.52;;;4.03;;
77051;SDS011;65980;44.898;8.602;2023-07-13T18:03:38;5.97;;;3.25;;
77051;SDS011;65980;44.898;8.602;2023-07-13T18:06:49;9.55;;;3.80;;
77051;SDS011;65980;44.898;8.602;2023-07-13T18:10:00;8.30;;;3.58;;
77051;SDS011;65980;44.898;8.602;2023-07-13T18:13:05;11.07;;;3.17;;
77051;SDS011;65980;44.898;8.602;2023-07-13T18:16:14;13.60;;;3.47;;
77051;SDS011;65980;44.898;8.602;2023-07-13T18:19:40;7.63;;;3.55;;
77051;SDS011;65980;44.898;8.602;2023-07-13T18:22:46;14.38;;;3.33;;
77051;SDS011;65980;44.898;8.602;2023-07-13T18:25:51;5.70;;;3.00;;
77051;SDS011;65980;44.898;8.602;2023-07-13T18:28:56;15.07;;;3.60;;
77051;SDS011;65980;44.898;8.602;2023-07-13T18:32:02;14.43;;;3.88;;
77051;SDS011;65980;44.898;8.602;2023-07-13T18:35:12;7.95;;;3.50;;
77051;SDS011;65980;44.898;8.602;2023-07-13T18:38:41;8.60;;;3.03;;
77051;SDS011;65980;44.898;8.602;2023-07-13T18:41:46;13.82;;;3.40;;
77051;SDS011;65980;44.898;8.602;2023-07-13T18:44:52;10.80;;;3.33;;
77051;SDS011;65980;44.898;8.602;2023-07-13T18:47:57;8.05;;;3.53;;
77051;SDS011;65980;44.898;8.602;2023-07-13T18:51:02;10.27;;;3.38;;
77051;SDS011;65980;44.898;8.602;2023-07-13T18:54:13;8.23;;;3.38;;
77051;SDS011;65980;44.898;8.602;2023-07-13T18:57:18;9.80;;;3.08;;
77051;SDS011;65980;44.898;8.602;2023-07-13T19:00:24;14.75;;;3.92;;
77051;SDS011;65980;44.898;8.602;2023-07-13T19:03:33;10.70;;;3.40;;
77051;SDS011;65980;44.898;8.602;2023-07-13T19:06:44;14.20;;;3.80;;
77051;SDS011;65980;44.898;8.602;2023-07-13T19:09:49;6.32;;;3.03;;
77051;SDS011;65980;44.898;8.602;2023-07-13T19:12:56;11.88;;;3.42;;
77051;SDS011;65980;44.898;8.602;2023-07-13T19:16:03;8.98;;;3.40;;
77051;SDS011;65980;44.898;8.602;2023-07-13T19:19:12;14.18;;;3.75;;
77051;SDS011;65980;44.898;8.602;2023-07-13T19:22:18;16.85;;;3.53;;
77051;SDS011;65980;44.898;8.602;2023-07-13T19:25:23;11.50;;;3.33;;
77051;SDS011;65980;44.898;8.602;2023-07-13T19:28:36;13.90;;;3.10;;
77051;SDS011;65980;44.898;8.602;2023-07-13T19:31:43;12.10;;;3.33;;
77051;SDS011;65980;44.898;8.602;2023-07-13T19:34:49;9.20;;;3.38;;
77051;SDS011;65980;44.898;8.602;2023-07-13T19:37:57;9.77;;;3.50;;
77051;SDS011;65980;44.898;8.602;2023-07-13T19:41:01;9.15;;;3.40;;
77051;SDS011;65980;44.898;8.602;2023-07-13T19:44:09;10.25;;;3.85;;
77051;SDS011;65980;44.898;8.602;2023-07-13T19:50:25;10.50;;;3.50;;
77051;SDS011;65980;44.898;8.602;2023-07-13T19:53:30;11.55;;;3.85;;